Time;durP1;ratioP1;P1;durP2;ratioP2;P2;SDS_P1;SDS_P2;PMS_P1;PMS_P2;Temp;Humidity;BMP_temperature;BMP_pressure;BME280_temperature;BME280_humidity;BME280_pressure;Samples;Min_cycle;Max_cycle;Signal;HPM_P1;HPM_P2
2021/03/24 00:02:05;;;;;;;55.92;26.20;;;;;;;;;;5097744;28;20039;-84
2021/03/24 00:08:14;;;;;;;60.30;27.75;;;;;;;;;;5112366;28;20046;-85
2021/03/24 00:11:00;;;;;;;51.47;25.38;;;;;;;;;;5083636;28;20040;-85
2021/03/24 00:13:46;;;;;;;62.55;26.75;;;;;;;;;;5111684;28;20055;-85
2021/03/24 00:16:32;;;;;;;62.08;27.52;;;;;;;;;;5097319;28;20039;-85
2021/03/24 00:19:18;;;;;;;65.90;29.05;;;;;;;;;;5097503;28;20043;-85
2021/03/24 00:22:05;;;;;;;61.67;27.35;;;;;;;;;;5097602;28;20043;-85
2021/03/24 00:24:51;;;;;;;62.55;28.50;;;;;;;;;;5097303;28;20044;-84
2021/03/24 00:27:37;;;;;;;64.80;30.63;;;;;;;;;;5083517;28;20048;-85
2021/03/24 00:30:24;;;;;;;61.15;29.70;;;;;;;;;;5111645;28;20132;-85
2021/03/24 00:33:11;;;;;;;63.55;30.30;;;;;;;;;;5083261;28;20083;-84
2021/03/24 00:35:57;;;;;;;67.85;28.77;;;;;;;;;;5097235;28;20044;-84
2021/03/24 00:38:43;;;;;;;68.72;29.33;;;;;;;;;;5111384;28;20043;-84
2021/03/24 00:41:29;;;;;;;67.40;29.80;;;;;;;;;;5097225;28;20105;-84
2021/03/24 00:44:15;;;;;;;65.80;29.25;;;;;;;;;;5097200;28;20044;-84
2021/03/24 00:47:01;;;;;;;66.45;29.85;;;;;;;;;;5097383;28;20047;-84
2021/03/24 00:49:47;;;;;;;70.70;30.60;;;;;;;;;;5098924;28;20517;-84
2021/03/24 00:52:33;;;;;;;62.95;28.33;;;;;;;;;;5101063;28;20113;-84
2021/03/24 00:55:19;;;;;;;62.95;28.20;;;;;;;;;;5100672;28;20043;-84
2021/03/24 00:58:05;;;;;;;66.05;28.77;;;;;;;;;;5100846;28;20043;-84
2021/03/24 01:00:52;;;;;;;68.88;30.38;;;;;;;;;;5100771;28;20047;-84
2021/03/24 01:03:38;;;;;;;63.78;29.25;;;;;;;;;;5114967;28;20047;-84
2021/03/24 01:06:24;;;;;;;67.45;28.55;;;;;;;;;;5086724;28;20402;-85
2021/03/24 01:09:10;;;;;;;66.10;28.45;;;;;;;;;;5100471;28;20397;-85
2021/03/24 01:11:56;;;;;;;69.93;29.23;;;;;;;;;;5114983;28;20082;-85
2021/03/24 01:14:42;;;;;;;65.45;29.05;;;;;;;;;;5100473;28;20398;-85
2021/03/24 01:17:28;;;;;;;64.75;29.55;;;;;;;;;;5086488;28;20475;-85
2021/03/24 01:20:14;;;;;;;69.25;28.23;;;;;;;;;;5114668;28;20058;-85
2021/03/24 01:23:00;;;;;;;67.72;28.60;;;;;;;;;;5086282;28;20075;-84
2021/03/24 01:25:46;;;;;;;65.03;27.25;;;;;;;;;;5114124;28;20556;-85
2021/03/24 01:28:32;;;;;;;66.15;27.15;;;;;;;;;;5086354;28;20044;-84
2021/03/24 01:31:18;;;;;;;66.70;27.95;;;;;;;;;;5099976;28;20105;-85
2021/03/24 01:34:04;;;;;;;64.28;28.00;;;;;;;;;;5099682;28;20380;-85
2021/03/24 01:36:50;;;;;;;66.03;28.15;;;;;;;;;;5099852;28;20286;-85
2021/03/24 01:39:36;;;;;;;66.63;27.65;;;;;;;;;;5099878;28;20474;-85
2021/03/24 01:42:24;;;;;;;60.10;26.98;;;;;;;;;;5113922;28;20537;-85
2021/03/24 01:45:16;;;;;;;63.85;27.95;;;;;;;;;;5100001;28;20040;-83
2021/03/24 01:48:03;;;;;;;62.92;26.85;;;;;;;;;;5114035;28;20044;-84
2021/03/24 01:50:49;;;;;;;65.07;27.92;;;;;;;;;;5099692;28;20044;-84
2021/03/24 01:53:36;;;;;;;60.70;27.60;;;;;;;;;;5100002;28;20051;-84
2021/03/24 01:56:22;;;;;;;66.40;28.00;;;;;;;;;;5099477;28;20035;-84
2021/03/24 01:59:08;;;;;;;66.18;27.08;;;;;;;;;;5099962;28;20059;-84
2021/03/24 02:01:54;;;;;;;66.20;26.88;;;;;;;;;;5099175;28;20051;-84
2021/03/24 02:04:40;;;;;;;65.38;26.50;;;;;;;;;;5085594;28;20100;-84
2021/03/24 02:07:32;;;;;;;68.45;27.95;;;;;;;;;;5099626;28;20142;-84
2021/03/24 02:10:21;;;;;;;63.30;27.52;;;;;;;;;;5099714;28;20047;-84
2021/03/24 02:13:09;;;;;;;65.85;27.65;;;;;;;;;;5113527;28;20107;-84
2021/03/24 02:16:03;;;;;;;70.32;28.63;;;;;;;;;;5085198;28;20042;-85
2021/03/24 02:18:49;;;;;;;66.43;28.08;;;;;;;;;;5099517;28;20407;-85
2021/03/24 02:21:35;;;;;;;66.88;27.48;;;;;;;;;;5085238;28;20044;-85
2021/03/24 02:24:27;;;;;;;67.82;29.23;;;;;;;;;;5085177;28;20051;-85
2021/03/24 02:27:20;;;;;;;72.60;30.63;;;;;;;;;;5099314;28;20050;-84
2021/03/24 02:30:08;;;;;;;67.32;28.00;;;;;;;;;;5085257;28;20134;-85
2021/03/24 02:32:56;;;;;;;72.72;31.15;;;;;;;;;;5099151;28;20087;-84
2021/03/24 02:35:43;;;;;;;70.55;30.00;;;;;;;;;;5098373;28;20142;-85
2021/03/24 02:38:29;;;;;;;76.25;31.75;;;;;;;;;;5099405;28;20127;-85
2021/03/24 02:41:15;;;;;;;72.25;30.13;;;;;;;;;;5084696;28;20465;-84
2021/03/24 02:44:02;;;;;;;73.05;30.08;;;;;;;;;;5085166;28;20089;-84
2021/03/24 02:46:48;;;;;;;74.50;31.52;;;;;;;;;;5098846;28;20044;-84
2021/03/24 02:49:35;;;;;;;71.90;29.73;;;;;;;;;;5098795;28;20058;-84
2021/03/24 02:52:21;;;;;;;71.18;31.63;;;;;;;;;;5084671;28;20051;-85
2021/03/24 02:55:07;;;;;;;72.80;32.05;;;;;;;;;;5084568;28;20145;-85
2021/03/24 02:57:53;;;;;;;70.97;29.83;;;;;;;;;;5098357;28;20052;-85
2021/03/24 03:00:39;;;;;;;74.10;30.38;;;;;;;;;;5112355;28;20071;-84
2021/03/24 03:03:26;;;;;;;79.93;31.00;;;;;;;;;;5098668;28;20040;-84
2021/03/24 03:06:12;;;;;;;79.53;33.05;;;;;;;;;;5098407;28;20043;-84
2021/03/24 03:08:59;;;;;;;78.57;31.98;;;;;;;;;;5098212;28;20051;-84
2021/03/24 03:12:04;;;;;;;83.00;31.77;;;;;;;;;;5098320;28;20462;-84
2021/03/24 03:14:53;;;;;;;74.35;30.25;;;;;;;;;;5098143;28;20368;-84
2021/03/24 03:18:06;;;;;;;81.35;31.52;;;;;;;;;;5084061;28;20059;-84
2021/03/24 03:20:53;;;;;;;67.05;29.98;;;;;;;;;;5112261;28;20054;-84
2021/03/24 03:23:39;;;;;;;83.15;33.60;;;;;;;;;;5097943;28;20130;-84
2021/03/24 03:26:25;;;;;;;75.97;30.92;;;;;;;;;;5098142;28;20054;-84
2021/03/24 03:29:15;;;;;;;72.03;30.15;;;;;;;;;;5084045;28;20478;-84
2021/03/24 03:32:02;;;;;;;80.60;32.60;;;;;;;;;;5112089;28;20180;-84
2021/03/24 03:34:50;;;;;;;79.97;31.63;;;;;;;;;;5083579;28;20044;-84
2021/03/24 03:37:36;;;;;;;80.80;32.35;;;;;;;;;;5098041;28;20169;-84
2021/03/24 03:40:22;;;;;;;80.28;33.28;;;;;;;;;;5097891;28;20070;-84
2021/03/24 03:43:09;;;;;;;84.05;31.48;;;;;;;;;;5098004;28;20403;-84
2021/03/24 03:45:57;;;;;;;80.10;31.20;;;;;;;;;;5098041;28;20112;-84
2021/03/24 03:48:45;;;;;;;80.45;30.85;;;;;;;;;;5097870;28;20040;-84
2021/03/24 03:51:40;;;;;;;78.35;30.67;;;;;;;;;;5097571;28;20483;-85
2021/03/24 03:54:28;;;;;;;77.82;31.27;;;;;;;;;;5097861;28;20433;-85
2021/03/24 03:57:27;;;;;;;83.40;31.88;;;;;;;;;;5083367;28;20402;-84
2021/03/24 04:00:16;;;;;;;78.40;31.70;;;;;;;;;;5111824;28;20052;-84
2021/03/24 04:03:03;;;;;;;77.50;30.52;;;;;;;;;;5111596;28;20533;-85
2021/03/24 04:05:50;;;;;;;81.70;31.45;;;;;;;;;;5097585;28;20399;-85
2021/03/24 04:08:36;;;;;;;77.07;31.05;;;;;;;;;;5083827;28;20075;-85
2021/03/24 04:11:23;;;;;;;82.47;32.17;;;;;;;;;;5083344;28;20380;-85
2021/03/24 04:14:09;;;;;;;83.55;32.50;;;;;;;;;;5083893;28;20055;-84
2021/03/24 04:16:55;;;;;;;95.50;34.95;;;;;;;;;;5097370;28;20128;-84
2021/03/24 04:19:44;;;;;;;80.93;32.97;;;;;;;;;;5083615;28;20055;-84
2021/03/24 04:22:30;;;;;;;82.75;32.28;;;;;;;;;;5111537;28;20386;-85
2021/03/24 04:25:37;;;;;;;78.28;32.65;;;;;;;;;;5100311;28;20047;-85
2021/03/24 04:28:23;;;;;;;77.63;31.38;;;;;;;;;;5115683;28;20047;-84
2021/03/24 04:31:10;;;;;;;96.13;36.33;;;;;;;;;;5101428;28;20620;-84
2021/03/24 04:33:56;;;;;;;97.47;34.35;;;;;;;;;;5087037;28;20214;-84
2021/03/24 04:36:43;;;;;;;100.13;37.42;;;;;;;;;;5100975;28;20040;-84
2021/03/24 04:39:35;;;;;;;95.43;35.22;;;;;;;;;;5101430;28;20053;-84
2021/03/24 04:42:22;;;;;;;94.20;35.65;;;;;;;;;;5101200;28;20071;-83
2021/03/24 04:45:29;;;;;;;98.18;35.78;;;;;;;;;;5101191;28;20093;-83
2021/03/24 04:48:17;;;;;;;90.15;34.38;;;;;;;;;;5115429;28;20056;-83
2021/03/24 04:51:07;;;;;;;92.30;35.47;;;;;;;;;;5101126;28;20058;-83
2021/03/24 04:53:55;;;;;;;93.38;35.08;;;;;;;;;;5100865;28;20048;-84
2021/03/24 04:56:42;;;;;;;96.00;35.35;;;;;;;;;;5101081;28;20043;-83
2021/03/24 04:59:28;;;;;;;93.10;35.75;;;;;;;;;;5100775;28;20486;-83
2021/03/24 05:02:16;;;;;;;97.60;35.65;;;;;;;;;;5101008;28;20180;-83
2021/03/24 05:05:15;;;;;;;89.63;33.05;;;;;;;;;;5100804;28;20051;-82
2021/03/24 05:08:03;;;;;;;89.50;33.47;;;;;;;;;;5100640;28;20054;-83
2021/03/24 05:10:49;;;;;;;85.22;33.25;;;;;;;;;;5100747;28;20138;-83
2021/03/24 05:13:43;;;;;;;100.80;36.85;;;;;;;;;;5086512;28;20040;-83
2021/03/24 05:16:36;;;;;;;108.13;39.72;;;;;;;;;;5086234;28;20039;-84
2021/03/24 05:19:22;;;;;;;97.13;35.75;;;;;;;;;;5100614;28;20369;-84
2021/03/24 05:22:10;;;;;;;95.22;36.20;;;;;;;;;;5100153;28;20047;-83
2021/03/24 05:24:57;;;;;;;113.45;41.67;;;;;;;;;;5100448;28;20035;-84
2021/03/24 05:27:47;;;;;;;98.40;37.40;;;;;;;;;;5086584;28;20044;-85
2021/03/24 05:30:34;;;;;;;114.05;38.78;;;;;;;;;;5086253;28;20047;-84
2021/03/24 05:33:22;;;;;;;107.78;38.13;;;;;;;;;;5100283;28;20043;-84
2021/03/24 05:36:22;;;;;;;119.32;40.67;;;;;;;;;;5113067;28;20406;-84
2021/03/24 05:39:18;;;;;;;114.07;41.65;;;;;;;;;;5086133;28;20048;-83
2021/03/24 05:42:23;;;;;;;109.13;38.80;;;;;;;;;;5100281;28;20062;-83
2021/03/24 05:45:13;;;;;;;112.78;41.45;;;;;;;;;;5099614;28;20130;-82
2021/03/24 05:48:06;;;;;;;113.35;40.17;;;;;;;;;;5086063;28;20056;-83
2021/03/24 05:50:53;;;;;;;105.20;38.08;;;;;;;;;;5100193;28;20112;-84
2021/03/24 05:53:45;;;;;;;111.93;40.20;;;;;;;;;;5114217;28;20051;-85
2021/03/24 05:56:50;;;;;;;108.00;40.08;;;;;;;;;;5099621;28;20040;-85
2021/03/24 05:59:48;;;;;;;118.20;42.55;;;;;;;;;;5114111;28;20509;-85
2021/03/24 06:02:46;;;;;;;118.13;40.47;;;;;;;;;;5113576;28;20537;-83
2021/03/24 06:05:36;;;;;;;103.85;38.67;;;;;;;;;;5099652;28;20047;-83
2021/03/24 06:08:40;;;;;;;106.72;40.05;;;;;;;;;;5099570;28;20101;-83
2021/03/24 06:11:45;;;;;;;109.40;41.55;;;;;;;;;;5099453;28;20043;-83
2021/03/24 06:14:50;;;;;;;122.53;41.85;;;;;;;;;;5113468;28;20429;-83
2021/03/24 06:17:48;;;;;;;115.57;40.47;;;;;;;;;;5099137;28;20050;-83
2021/03/24 06:20:36;;;;;;;111.22;41.58;;;;;;;;;;5113530;28;20097;-83
2021/03/24 06:23:27;;;;;;;109.32;41.05;;;;;;;;;;5085467;28;20391;-82
2021/03/24 06:26:42;;;;;;;103.22;39.05;;;;;;;;;;5085445;28;20048;-82
2021/03/24 06:29:43;;;;;;;105.55;37.63;;;;;;;;;;5107708;28;20063;-82
2021/03/24 06:32:38;;;;;;;112.88;42.55;;;;;;;;;;5113372;28;20096;-83
2021/03/24 06:35:36;;;;;;;110.65;42.28;;;;;;;;;;5112700;28;20079;-84
2021/03/24 06:38:35;;;;;;;105.05;40.70;;;;;;;;;;5099111;28;20054;-83
2021/03/24 06:41:40;;;;;;;108.97;41.42;;;;;;;;;;5085124;28;20047;-85
2021/03/24 06:44:26;;;;;;;104.25;41.80;;;;;;;;;;5112745;28;20394;-84
2021/03/24 06:47:27;;;;;;;110.65;40.25;;;;;;;;;;5112506;28;20521;-84
2021/03/24 06:50:13;;;;;;;98.88;40.90;;;;;;;;;;5112916;28;20043;-84
2021/03/24 06:53:25;;;;;;;100.22;39.47;;;;;;;;;;5112532;28;20051;-85
2021/03/24 06:56:14;;;;;;;100.07;40.25;;;;;;;;;;5098471;28;20035;-84
2021/03/24 06:59:06;;;;;;;94.68;39.80;;;;;;;;;;5112492;28;20479;-86
2021/03/24 07:01:59;;;;;;;98.15;41.45;;;;;;;;;;5112805;28;20095;-85
2021/03/24 07:05:02;;;;;;;96.43;39.05;;;;;;;;;;5112556;28;20066;-85
2021/03/24 07:07:54;;;;;;;89.72;39.58;;;;;;;;;;5098820;28;20077;-86
2021/03/24 07:10:40;;;;;;;94.65;40.53;;;;;;;;;;5098113;28;20085;-86
2021/03/24 07:13:46;;;;;;;91.25;40.33;;;;;;;;;;5110453;28;20047;-86
2021/03/24 07:16:35;;;;;;;93.63;41.35;;;;;;;;;;5093828;28;20136;-87
2021/03/24 07:19:21;;;;;;;96.72;41.40;;;;;;;;;;5096763;28;20054;-86
2021/03/24 07:22:25;;;;;;;86.68;40.50;;;;;;;;;;5111070;28;20044;-87
2021/03/24 07:25:30;;;;;;;87.32;40.97;;;;;;;;;;5112667;28;20036;-87
2021/03/24 07:28:20;;;;;;;82.90;38.88;;;;;;;;;;5087163;28;20192;-86
2021/03/24 07:31:13;;;;;;;89.80;41.20;;;;;;;;;;5076438;28;20051;-88
2021/03/24 07:33:59;;;;;;;84.25;41.33;;;;;;;;;;5067705;28;20405;-85
2021/03/24 07:37:00;;;;;;;82.63;42.55;;;;;;;;;;5097507;28;20097;-85
2021/03/24 07:39:52;;;;;;;84.40;42.45;;;;;;;;;;5097739;28;20050;-85
2021/03/24 07:42:56;;;;;;;83.82;43.22;;;;;;;;;;5105658;27;20364;-86
2021/03/24 07:45:48;;;;;;;84.18;42.13;;;;;;;;;;5114679;27;20140;-86
2021/03/24 07:48:53;;;;;;;77.05;41.80;;;;;;;;;;5117048;27;20116;-85
2021/03/24 07:51:58;;;;;;;82.00;42.88;;;;;;;;;;5103644;27;20039;-85
2021/03/24 07:55:00;;;;;;;75.50;41.22;;;;;;;;;;5103670;27;20139;-84
2021/03/24 07:57:54;;;;;;;78.07;41.17;;;;;;;;;;5117775;28;20035;-85
2021/03/24 08:01:10;;;;;;;84.63;44.17;;;;;;;;;;5103490;28;20151;-85
2021/03/24 08:04:01;;;;;;;74.63;40.90;;;;;;;;;;5057694;28;20138;-85
2021/03/24 08:06:50;;;;;;;78.18;42.92;;;;;;;;;;5117620;28;20043;-86
2021/03/24 08:09:55;;;;;;;79.22;43.63;;;;;;;;;;5103450;28;20043;-86
2021/03/24 08:12:52;;;;;;;80.90;43.88;;;;;;;;;;5117369;28;20043;-89
2021/03/24 08:15:59;;;;;;;78.10;43.47;;;;;;;;;;5090220;28;20055;-88
2021/03/24 08:19:03;;;;;;;75.05;42.65;;;;;;;;;;5104507;28;20043;-87
2021/03/24 08:21:42;;;;;;;71.55;41.85;;;;;;;;;;5133497;28;20035;-88
2021/03/24 08:24:28;;;;;;;75.85;42.67;;;;;;;;;;5115079;28;20039;-88
2021/03/24 08:26:55;;;;;;;70.90;40.33;;;;;;;;;;5114174;28;20495;-85
2021/03/24 08:29:21;;;;;;;74.22;42.30;;;;;;;;;;5113629;28;20095;-85
2021/03/24 08:32:02;;;;;;;66.88;40.30;;;;;;;;;;5092036;28;20396;-86
2021/03/24 08:34:33;;;;;;;71.25;41.72;;;;;;;;;;5093179;28;20056;-85
2021/03/24 08:37:02;;;;;;;70.45;41.72;;;;;;;;;;5094241;28;20048;-85
2021/03/24 08:39:47;;;;;;;72.97;42.30;;;;;;;;;;5093634;28;20085;-85
2021/03/24 08:42:35;;;;;;;71.15;40.10;;;;;;;;;;5111838;28;20115;-86
2021/03/24 08:45:04;;;;;;;64.90;39.78;;;;;;;;;;5076905;28;20035;-85
2021/03/24 08:47:32;;;;;;;66.75;40.70;;;;;;;;;;5086351;28;20058;-84
2021/03/24 08:49:58;;;;;;;67.43;39.13;;;;;;;;;;5113817;28;20043;-84
2021/03/24 08:52:27;;;;;;;64.38;39.65;;;;;;;;;;5097238;28;20035;-83
2021/03/24 08:54:59;;;;;;;63.25;39.53;;;;;;;;;;5113737;28;20108;-83
2021/03/24 08:57:31;;;;;;;63.65;39.53;;;;;;;;;;5097172;28;20386;-83
2021/03/24 09:00:10;;;;;;;65.78;39.83;;;;;;;;;;5113984;28;20487;-86
2021/03/24 09:02:36;;;;;;;64.07;38.97;;;;;;;;;;5132200;28;20118;-83
2021/03/24 09:05:09;;;;;;;64.72;39.47;;;;;;;;;;5114433;28;20032;-83
2021/03/24 09:07:39;;;;;;;58.55;36.08;;;;;;;;;;5093628;28;20040;-83
2021/03/24 09:10:10;;;;;;;63.83;38.08;;;;;;;;;;5093384;28;20036;-84
2021/03/24 09:12:38;;;;;;;59.50;35.45;;;;;;;;;;5117051;27;20155;-83
2021/03/24 09:15:07;;;;;;;60.00;36.35;;;;;;;;;;5100361;27;20035;-83
2021/03/24 09:17:48;;;;;;;53.08;33.40;;;;;;;;;;5115180;27;20043;-84
2021/03/24 09:20:33;;;;;;;55.35;33.63;;;;;;;;;;5134171;27;20084;-84
2021/03/24 09:23:17;;;;;;;49.72;32.50;;;;;;;;;;5135560;27;20080;-84
2021/03/24 09:25:52;;;;;;;48.25;31.85;;;;;;;;;;5118611;27;20039;-83
2021/03/24 09:28:30;;;;;;;46.35;29.83;;;;;;;;;;5097039;28;20044;-83
2021/03/24 09:30:59;;;;;;;48.22;30.33;;;;;;;;;;5080055;28;20478;-84
2021/03/24 09:33:28;;;;;;;45.97;29.23;;;;;;;;;;5096962;28;20043;-81
2021/03/24 09:36:21;;;;;;;46.42;30.38;;;;;;;;;;5114833;28;20055;-82
2021/03/24 09:38:47;;;;;;;47.60;30.23;;;;;;;;;;5075517;28;20043;-82
2021/03/24 09:41:19;;;;;;;50.03;30.95;;;;;;;;;;5096665;28;20039;-82
2021/03/24 09:43:45;;;;;;;;;;;;;;;;;;5097196;28;20067;-81
2021/03/24 09:46:18;;;;;;;47.17;30.52;;;;;;;;;;5114765;28;19969;-82
2021/03/24 09:48:54;;;;;;;47.20;30.08;;;;;;;;;;5096741;28;20039;-80
2021/03/24 09:51:44;;;;;;;49.08;30.20;;;;;;;;;;5096777;28;20047;-81
2021/03/24 09:54:13;;;;;;;49.42;31.48;;;;;;;;;;5067671;28;20059;-81
2021/03/24 09:56:39;;;;;;;49.67;31.38;;;;;;;;;;5114774;28;20052;-81
2021/03/24 09:59:28;;;;;;;48.97;29.60;;;;;;;;;;5096431;28;20520;-82
2021/03/24 10:02:07;;;;;;;43.78;28.05;;;;;;;;;;5067646;28;20128;-81
2021/03/24 10:04:41;;;;;;;43.20;27.45;;;;;;;;;;5114416;28;20368;-81
2021/03/24 10:07:10;;;;;;;41.90;26.92;;;;;;;;;;5096338;28;20039;-81
2021/03/24 10:09:37;;;;;;;40.47;27.58;;;;;;;;;;5114473;28;20085;-82
2021/03/24 10:12:03;;;;;;;45.25;26.92;;;;;;;;;;5096275;28;20082;-81
2021/03/24 10:14:48;;;;;;;36.63;24.38;;;;;;;;;;5096095;28;20032;-80
2021/03/24 10:17:35;;;;;;;35.25;25.50;;;;;;;;;;5114306;28;20039;-81
2021/03/24 10:20:20;;;;;;;36.78;24.95;;;;;;;;;;5096236;28;20063;-82
2021/03/24 10:22:49;;;;;;;39.78;24.63;;;;;;;;;;5113709;28;20040;-81
2021/03/24 10:25:24;;;;;;;39.38;24.88;;;;;;;;;;5096006;28;20044;-81
2021/03/24 10:27:51;;;;;;;39.40;23.38;;;;;;;;;;5095854;28;20040;-82
2021/03/24 10:30:24;;;;;;;37.65;24.10;;;;;;;;;;5095986;28;20039;-81
2021/03/24 10:32:51;;;;;;;37.47;23.00;;;;;;;;;;5095955;28;20043;-82
2021/03/24 10:35:21;;;;;;;36.78;24.48;;;;;;;;;;5078631;28;20048;-81
2021/03/24 10:37:50;;;;;;;41.03;24.52;;;;;;;;;;5095875;28;20066;-82
2021/03/24 10:40:36;;;;;;;33.50;23.63;;;;;;;;;;5095784;28;20074;-82
2021/03/24 10:43:03;;;;;;;38.35;24.98;;;;;;;;;;5095877;28;20031;-82
2021/03/24 10:45:33;;;;;;;36.42;23.35;;;;;;;;;;5095420;28;20046;-82
2021/03/24 10:48:13;;;;;;;34.95;22.40;;;;;;;;;;5095712;28;20043;-80
2021/03/24 10:50:58;;;;;;;39.70;22.83;;;;;;;;;;5095441;28;20044;-81
2021/03/24 10:53:25;;;;;;;38.05;22.90;;;;;;;;;;5113737;28;20032;-81
2021/03/24 10:56:10;;;;;;;38.88;22.30;;;;;;;;;;5095314;28;20039;-82
2021/03/24 10:58:39;;;;;;;36.20;21.75;;;;;;;;;;5113508;28;20441;-82
2021/03/24 11:01:24;;;;;;;31.38;21.27;;;;;;;;;;5113492;28;20103;-83
2021/03/24 11:03:57;;;;;;;39.53;22.52;;;;;;;;;;5113694;28;20071;-84
2021/03/24 11:07:05;;;;;;;33.45;21.20;;;;;;;;;;5095147;28;20067;-84
2021/03/24 11:09:58;;;;;;;33.25;21.80;;;;;;;;;;5095044;28;20487;-81
2021/03/24 11:12:25;;;;;;;36.28;22.92;;;;;;;;;;5108871;28;20044;-81
2021/03/24 11:15:00;;;;;;;35.25;22.63;;;;;;;;;;5095016;28;20405;-81
2021/03/24 11:17:27;;;;;;;39.95;23.52;;;;;;;;;;5078600;28;20049;-81
2021/03/24 11:20:19;;;;;;;37.58;21.80;;;;;;;;;;5078180;28;20089;-82
2021/03/24 11:22:51;;;;;;;36.80;21.38;;;;;;;;;;5074817;28;20052;-81
2021/03/24 11:25:23;;;;;;;35.58;21.80;;;;;;;;;;5112975;28;20036;-82
2021/03/24 11:27:51;;;;;;;;;;;;;;;;;;5113391;28;20081;-81
2021/03/24 11:30:23;;;;;;;33.88;21.20;;;;;;;;;;5094835;28;20339;-81
2021/03/24 11:32:49;;;;;;;30.95;18.73;;;;;;;;;;5112853;28;20110;-81
2021/03/24 11:35:21;;;;;;;32.58;19.60;;;;;;;;;;5093874;28;20135;-81
2021/03/24 11:37:49;;;;;;;30.00;19.42;;;;;;;;;;5094623;28;20047;-79
2021/03/24 11:40:24;;;;;;;30.10;18.90;;;;;;;;;;5094779;28;20085;-82
2021/03/24 11:42:51;;;;;;;32.58;18.88;;;;;;;;;;5077906;28;20072;-80
2021/03/24 11:45:18;;;;;;;27.98;18.75;;;;;;;;;;5094260;28;20088;-81
2021/03/24 11:47:50;;;;;;;30.13;19.05;;;;;;;;;;5094641;28;20032;-83
2021/03/24 11:50:39;;;;;;;29.48;18.40;;;;;;;;;;5113563;27;20035;-82
2021/03/24 11:53:11;;;;;;;32.03;19.15;;;;;;;;;;5090734;27;20126;-83
2021/03/24 11:55:47;;;;;;;30.45;19.15;;;;;;;;;;5132520;27;20417;-82
2021/03/24 11:58:22;;;;;;;30.73;19.27;;;;;;;;;;5114752;28;20371;-83
2021/03/24 12:00:53;;;;;;;32.83;19.95;;;;;;;;;;5115216;28;20039;-83
2021/03/24 12:03:38;;;;;;;30.73;18.83;;;;;;;;;;5114398;28;20043;-85
2021/03/24 12:06:19;;;;;;;34.50;19.70;;;;;;;;;;5132668;28;20466;-84
2021/03/24 12:08:47;;;;;;;32.85;19.50;;;;;;;;;;5132775;28;20066;-84
2021/03/24 12:11:20;;;;;;;33.72;20.27;;;;;;;;;;5114415;28;20118;-84
2021/03/24 12:13:46;;;;;;;35.40;20.48;;;;;;;;;;5097431;28;20039;-84
2021/03/24 12:16:13;;;;;;;35.45;20.77;;;;;;;;;;5097388;28;20047;-85
2021/03/24 12:18:50;;;;;;;31.70;19.50;;;;;;;;;;5114499;28;20035;-85
2021/03/24 12:21:17;;;;;;;33.08;19.52;;;;;;;;;;5096658;28;20064;-84
2021/03/24 12:23:43;;;;;;;32.70;19.83;;;;;;;;;;5114417;28;20035;-84
2021/03/24 12:26:19;;;;;;;37.58;19.90;;;;;;;;;;5097190;28;20122;-84
2021/03/24 12:28:45;;;;;;;34.88;19.35;;;;;;;;;;5097424;28;20081;-82
2021/03/24 12:31:12;;;;;;;27.15;17.92;;;;;;;;;;5114326;28;20066;-86
2021/03/24 12:33:57;;;;;;;31.10;19.10;;;;;;;;;;5114358;28;20039;-83
2021/03/24 12:36:24;;;;;;;33.65;20.13;;;;;;;;;;5111726;28;20097;-83
2021/03/24 12:38:52;;;;;;;35.35;20.13;;;;;;;;;;5093504;28;20126;-84
2021/03/24 12:41:29;;;;;;;32.50;20.00;;;;;;;;;;5107015;28;20090;-83
2021/03/24 12:44:04;;;;;;;33.42;20.33;;;;;;;;;;5090219;28;20036;-85
2021/03/24 12:46:31;;;;;;;31.85;19.20;;;;;;;;;;5076775;28;20040;-85
2021/03/24 12:48:58;;;;;;;32.35;18.83;;;;;;;;;;5095495;28;20093;-85
2021/03/24 12:51:44;;;;;;;36.17;20.33;;;;;;;;;;5077424;28;20040;-85
2021/03/24 12:54:10;;;;;;;38.28;21.17;;;;;;;;;;5093977;28;20068;-87
2021/03/24 12:56:45;;;;;;;36.53;20.25;;;;;;;;;;5076906;28;20403;-87
2021/03/24 12:59:14;;;;;;;36.53;19.45;;;;;;;;;;5095251;28;20043;-85
2021/03/24 13:01:44;;;;;;;34.90;19.38;;;;;;;;;;5094235;28;20356;-86
2021/03/24 13:04:31;;;;;;;37.58;18.88;;;;;;;;;;5094518;28;20501;-84
2021/03/24 13:07:15;;;;;;;32.92;18.55;;;;;;;;;;5098597;28;20052;-84
2021/03/24 13:09:46;;;;;;;30.60;18.65;;;;;;;;;;5110288;28;20492;-84
2021/03/24 13:12:20;;;;;;;34.13;19.25;;;;;;;;;;5093786;28;20062;-85
2021/03/24 13:14:56;;;;;;;33.33;19.38;;;;;;;;;;5093737;28;20043;-84
2021/03/24 13:17:26;;;;;;;37.67;20.98;;;;;;;;;;5076894;28;20043;-85
2021/03/24 13:19:56;;;;;;;37.75;20.48;;;;;;;;;;5115189;28;20027;-85
2021/03/24 13:22:38;;;;;;;32.88;18.38;;;;;;;;;;5113755;28;20039;-87
2021/03/24 13:25:23;;;;;;;34.40;19.95;;;;;;;;;;5114255;28;20081;-86
2021/03/24 13:28:07;;;;;;;30.00;18.73;;;;;;;;;;5115249;28;20044;-86
2021/03/24 13:30:34;;;;;;;31.67;18.15;;;;;;;;;;5114369;28;20040;-89
2021/03/24 13:33:04;;;;;;;34.67;19.25;;;;;;;;;;5114078;28;20550;-85
2021/03/24 13:35:52;;;;;;;33.22;18.88;;;;;;;;;;5130349;27;20047;-84
2021/03/24 13:38:26;;;;;;;30.88;18.90;;;;;;;;;;5100528;27;20042;-85
2021/03/24 13:40:52;;;;;;;36.55;19.45;;;;;;;;;;5100779;27;20035;-85
2021/03/24 13:43:21;;;;;;;37.72;19.55;;;;;;;;;;5117406;27;20045;-84
2021/03/24 13:45:51;;;;;;;34.97;19.50;;;;;;;;;;5117288;27;20084;-85
2021/03/24 13:48:21;;;;;;;35.85;18.52;;;;;;;;;;5100304;27;20035;-84
2021/03/24 13:50:50;;;;;;;35.22;18.73;;;;;;;;;;5117235;27;20035;-85
2021/03/24 13:53:35;;;;;;;37.38;20.38;;;;;;;;;;5135386;27;20031;-84
2021/03/24 13:56:20;;;;;;;35.92;19.50;;;;;;;;;;5116712;27;20035;-84
2021/03/24 13:59:00;;;;;;;37.65;21.60;;;;;;;;;;5135040;27;20035;-85
2021/03/24 14:01:30;;;;;;;33.53;19.17;;;;;;;;;;5099991;27;20031;-84
2021/03/24 14:03:59;;;;;;;36.30;20.25;;;;;;;;;;5100440;27;20186;-86
2021/03/24 14:06:49;;;;;;;35.70;19.83;;;;;;;;;;5116903;27;20035;-86
2021/03/24 14:09:22;;;;;;;35.38;20.20;;;;;;;;;;5117086;27;20045;-86
2021/03/24 14:12:07;;;;;;;36.15;21.08;;;;;;;;;;5099569;27;20129;-86
2021/03/24 14:14:52;;;;;;;39.33;20.15;;;;;;;;;;5116453;27;20160;-87
2021/03/24 14:17:22;;;;;;;38.85;22.08;;;;;;;;;;5134951;27;20639;-87
2021/03/24 14:19:55;;;;;;;37.90;21.73;;;;;;;;;;5099718;27;20043;-86
2021/03/24 14:22:25;;;;;;;40.80;22.52;;;;;;;;;;5116526;27;20035;-87
2021/03/24 14:24:51;;;;;;;42.05;22.40;;;;;;;;;;5099337;27;20182;-87
2021/03/24 14:27:30;;;;;;;36.00;20.77;;;;;;;;;;5134557;27;20046;-87
2021/03/24 14:29:59;;;;;;;34.92;19.80;;;;;;;;;;5134656;27;20543;-86
2021/03/24 14:32:25;;;;;;;35.95;20.73;;;;;;;;;;5116180;27;20039;-88
2021/03/24 14:34:51;;;;;;;42.17;22.52;;;;;;;;;;5098827;27;20039;-85
2021/03/24 14:37:38;;;;;;;39.30;23.27;;;;;;;;;;5134553;27;20069;-85
2021/03/24 14:40:04;;;;;;;39.97;22.17;;;;;;;;;;5115923;27;20115;-85
2021/03/24 14:42:36;;;;;;;39.55;21.60;;;;;;;;;;5134380;27;20497;-85
2021/03/24 14:45:21;;;;;;;37.42;21.50;;;;;;;;;;5115986;27;20398;-81
2021/03/24 14:48:02;;;;;;;39.08;22.65;;;;;;;;;;5134460;27;20054;-85
2021/03/24 14:50:28;;;;;;;36.63;21.08;;;;;;;;;;5115965;27;20044;-86
2021/03/24 14:52:54;;;;;;;39.10;21.77;;;;;;;;;;5134259;27;20062;-85
2021/03/24 14:55:26;;;;;;;39.35;20.80;;;;;;;;;;5134018;27;20035;-87
2021/03/24 14:57:52;;;;;;;39.03;21.80;;;;;;;;;;5115853;27;20530;-85
2021/03/24 15:00:18;;;;;;;40.60;23.00;;;;;;;;;;5115853;27;20031;-85
2021/03/24 15:02:44;;;;;;;39.80;22.48;;;;;;;;;;5121095;27;20035;-85
2021/03/24 15:05:19;;;;;;;45.33;23.17;;;;;;;;;;5095247;28;20050;-85
2021/03/24 15:07:45;;;;;;;38.53;22.58;;;;;;;;;;5094902;28;20040;-86
2021/03/24 15:10:20;;;;;;;42.25;21.88;;;;;;;;;;5095000;28;20032;-84
2021/03/24 15:12:49;;;;;;;43.97;22.70;;;;;;;;;;5113144;28;20106;-87
2021/03/24 15:15:37;;;;;;;40.72;22.27;;;;;;;;;;5112936;28;20035;-88
2021/03/24 15:18:12;;;;;;;39.28;21.45;;;;;;;;;;5094960;28;20036;-87
2021/03/24 15:20:48;;;;;;;42.67;22.77;;;;;;;;;;5112959;27;20398;-88
2021/03/24 15:23:20;;;;;;;41.33;23.17;;;;;;;;;;5077390;28;20055;-87
2021/03/24 15:25:47;;;;;;;44.22;24.20;;;;;;;;;;5077651;28;20101;-89
2021/03/24 15:28:21;;;;;;;38.03;22.23;;;;;;;;;;5078096;28;20499;-93
2021/03/24 15:31:06;;;;;;;43.65;23.98;;;;;;;;;;5095354;28;20044;-87
2021/03/24 15:33:34;;;;;;;42.22;23.08;;;;;;;;;;5112726;28;20069;-88
2021/03/24 15:36:03;;;;;;;39.75;23.40;;;;;;;;;;5094792;28;20100;-87
2021/03/24 15:38:33;;;;;;;47.60;24.17;;;;;;;;;;5094539;28;20039;-87
2021/03/24 15:41:25;;;;;;;46.40;23.80;;;;;;;;;;5112721;28;20047;-86
2021/03/24 15:44:10;;;;;;;42.75;24.60;;;;;;;;;;5109929;28;20055;-86
2021/03/24 15:46:37;;;;;;;43.55;23.92;;;;;;;;;;5120261;27;20074;-86
2021/03/24 15:49:07;;;;;;;43.58;25.70;;;;;;;;;;5096087;27;20039;-86